Weather at London Heathrow Airport

Public forecast

Using degrees Celsius for public forecast. Weather courtesy of forecast.io.

Current aviation weather report (METAR) for London Heathrow Airport

2024/02/24 16:50 (retrieved 25 minutes ago)

EGLL 241650Z AUTO 31003KT 220V340 9999 SCT027 BKN037 BKN045 08/03 Q0996

Aviation forecast (TAF) for London Heathrow Airport

2024/02/24 12:00 (retrieved 5 hours ago)

TAF EGLL 241056Z 2412/2518 21003KT 9999 FEW040 TEMPO 2412/2419 7000 SHRA PROB40 TEMPO 2413/2419 4000 +SHRA BKN014CB BECMG 2422/2501 6000 TEMPO 2501/2510 3000 BR MIFG PROB30 2502/2509 0500 FG BKN000 BECMG 2509/2511 09010KT 9999 TEMPO 2511/2518 8000 RA SHRA BKN012 PROB30 TEMPO 2515/2518 4000 RADZ BKN009